Saint-Prosper-De-Dorchester, Canada
Current Conditions -  °F | °C
As of 2:00 AM on Friday 31 Oct 2014 (Local Time) from CYQB Reporting Station
Overcast Overcast  
Wind Chill: 37°   Ceiling: 5200
Heat Index: 37°   Visibility: 15mi
Dew Point: 32°   Wind: 3mph
Humidity: 81%   Direction: 240°WSW
Pressure: 29.98"   Gusts: NA
Location:  46.2°N, 70.48°W
Report Text: CYQB 310600Z 24003KT 15SM OVC052 03/00 A2998 RMK SC8 SLP153
Loading
Personal Weather Stations






























Interactive Weather Map
Tropical Storm Tracking
New forecast layout! Learn more

10-Day Weather Forecast

Advertisements
Track Severe Weather on mobile